createdAt,value
2022-10-22T00:01:38.804Z,14.70
2022-10-22T00:04:05.576Z,14.70
2022-10-22T00:06:32.168Z,14.70
2022-10-22T00:08:58.729Z,14.70
2022-10-22T00:11:26.374Z,14.70
2022-10-22T00:13:52.863Z,14.70
2022-10-22T00:16:19.440Z,14.60
2022-10-22T00:18:45.986Z,14.60
2022-10-22T00:21:12.782Z,14.60
2022-10-22T00:23:42.861Z,14.60
2022-10-22T00:26:09.761Z,14.60
2022-10-22T00:28:36.256Z,14.60
2022-10-22T00:31:02.806Z,14.60
2022-10-22T00:33:29.819Z,14.60
2022-10-22T00:35:56.493Z,14.60
2022-10-22T00:38:23.029Z,14.70
2022-10-22T00:40:49.766Z,14.60
2022-10-22T00:43:17.540Z,14.70
2022-10-22T00:45:44.734Z,14.80
2022-10-22T00:48:20.891Z,14.80
2022-10-22T00:50:50.183Z,14.80
2022-10-22T00:53:18.715Z,14.90
2022-10-22T00:55:46.627Z,14.90
2022-10-22T00:58:13.239Z,14.90
2022-10-22T01:00:39.836Z,14.90
2022-10-22T01:03:06.684Z,15.00
2022-10-22T01:05:39.504Z,15.00
2022-10-22T01:08:07.448Z,15.00
2022-10-22T01:10:54.387Z,15.00
2022-10-22T01:13:43.051Z,15.00
2022-10-22T01:16:09.614Z,15.00
2022-10-22T01:18:54.285Z,15.00
2022-10-22T01:21:33.067Z,15.00
2022-10-22T01:24:08.648Z,15.10
2022-10-22T01:26:41.533Z,15.00
2022-10-22T01:29:13.727Z,14.90
2022-10-22T01:31:44.377Z,15.00
2022-10-22T01:34:12.370Z,14.90
2022-10-22T01:36:39.136Z,14.90
2022-10-22T01:39:07.037Z,14.90
2022-10-22T01:41:34.318Z,14.80
2022-10-22T01:44:00.986Z,14.80
2022-10-22T01:46:28.237Z,14.70
2022-10-22T01:49:17.390Z,14.70
2022-10-22T01:51:52.932Z,14.70
2022-10-22T01:54:29.566Z,14.70
2022-10-22T01:57:14.970Z,14.70
2022-10-22T01:59:57.698Z,14.70
2022-10-22T02:02:43.051Z,14.50
2022-10-22T02:05:12.869Z,14.50
2022-10-22T02:07:43.165Z,14.50
2022-10-22T02:10:10.877Z,14.50
2022-10-22T02:12:38.248Z,14.50
2022-10-22T02:15:05.436Z,14.50
2022-10-22T02:17:33.481Z,14.50
2022-10-22T02:20:09.656Z,14.50
2022-10-22T02:22:37.084Z,14.40
2022-10-22T02:25:05.248Z,14.40
2022-10-22T02:27:35.854Z,14.40
2022-10-22T02:30:09.563Z,14.30
2022-10-22T02:32:41.878Z,14.40
2022-10-22T02:35:10.177Z,14.30
2022-10-22T02:37:37.036Z,14.40
2022-10-22T02:40:04.274Z,14.30
2022-10-22T02:42:30.831Z,14.20
2022-10-22T02:44:57.379Z,14.20
2022-10-22T02:47:23.855Z,14.30
2022-10-22T02:49:50.343Z,14.30
2022-10-22T02:52:16.851Z,14.20
2022-10-22T02:54:43.388Z,14.20
2022-10-22T02:57:10.166Z,14.20
2022-10-22T02:59:36.713Z,14.20
2022-10-22T03:02:03.223Z,14.20
2022-10-22T03:04:29.759Z,14.20
2022-10-22T03:06:56.354Z,14.20
2022-10-22T03:09:24.796Z,14.20
2022-10-22T03:11:51.651Z,14.20
2022-10-22T03:14:18.275Z,14.20
2022-10-22T03:16:44.771Z,14.20
2022-10-22T03:19:11.267Z,14.20
2022-10-22T03:21:40.399Z,14.30
2022-10-22T03:24:09.649Z,14.30
2022-10-22T03:26:36.939Z,14.30
2022-10-22T03:29:03.831Z,14.30
2022-10-22T03:31:30.507Z,14.30
2022-10-22T03:33:57.043Z,14.20
2022-10-22T03:36:23.739Z,14.20
2022-10-22T03:38:50.432Z,14.20
2022-10-22T03:41:17.123Z,14.20
2022-10-22T03:43:45.289Z,14.20
2022-10-22T03:46:11.755Z,14.30
2022-10-22T03:48:38.344Z,14.20
2022-10-22T03:51:04.996Z,14.20
2022-10-22T03:53:31.517Z,14.20
2022-10-22T03:55:58.211Z,14.20
2022-10-22T03:58:24.950Z,14.20
2022-10-22T04:00:51.704Z,14.10
2022-10-22T04:03:18.218Z,14.20
2022-10-22T04:05:44.713Z,14.20
2022-10-22T04:08:11.194Z,14.20
2022-10-22T04:10:37.725Z,14.10
2022-10-22T04:13:04.407Z,14.10
2022-10-22T04:15:32.637Z,14.00
2022-10-22T04:17:59.390Z,14.00
2022-10-22T04:20:25.971Z,14.10
2022-10-22T04:22:52.699Z,14.00
2022-10-22T04:25:19.368Z,14.00
2022-10-22T04:27:46.052Z,14.00
2022-10-22T04:30:12.903Z,14.00
2022-10-22T04:32:39.655Z,14.00
2022-10-22T04:35:06.377Z,14.00
2022-10-22T04:37:32.969Z,14.00
2022-10-22T04:39:59.842Z,14.00
2022-10-22T04:42:26.687Z,14.00
2022-10-22T04:44:53.174Z,14.00
2022-10-22T04:47:19.864Z,14.00
2022-10-22T04:49:46.542Z,14.00
2022-10-22T04:52:13.256Z,13.90
2022-10-22T04:54:39.801Z,14.00
2022-10-22T04:57:06.279Z,14.00
2022-10-22T04:59:32.802Z,14.00
2022-10-22T05:01:59.332Z,14.00
2022-10-22T05:04:25.894Z,14.00
2022-10-22T05:06:52.751Z,13.90
2022-10-22T05:09:20.164Z,14.00
2022-10-22T05:11:48.811Z,14.00
2022-10-22T05:14:20.211Z,14.00
2022-10-22T05:16:48.382Z,13.90
2022-10-22T05:19:19.064Z,13.90
2022-10-22T05:21:45.624Z,13.90
2022-10-22T05:24:12.903Z,13.90
2022-10-22T05:26:39.408Z,13.90
2022-10-22T05:29:05.900Z,13.90
2022-10-22T05:31:32.499Z,13.80
2022-10-22T05:33:59.062Z,13.90
2022-10-22T05:36:25.679Z,13.80
2022-10-22T05:38:52.294Z,13.90
2022-10-22T05:41:20.178Z,13.80
2022-10-22T05:43:46.764Z,13.80
2022-10-22T05:46:21.381Z,13.70
2022-10-22T05:48:50.185Z,13.70
2022-10-22T05:51:16.687Z,13.80
2022-10-22T05:53:43.289Z,13.70
2022-10-22T05:56:13.676Z,13.70
2022-10-22T05:58:40.310Z,13.80
2022-10-22T06:01:08.597Z,13.80
2022-10-22T06:03:35.091Z,13.70
2022-10-22T06:06:02.774Z,13.80
2022-10-22T06:08:29.756Z,13.80
2022-10-22T06:10:56.938Z,13.80
2022-10-22T06:13:23.503Z,13.80
2022-10-22T06:15:50.652Z,13.70
2022-10-22T06:18:17.411Z,13.70
2022-10-22T06:20:45.534Z,13.70
2022-10-22T06:23:12.105Z,13.70
2022-10-22T06:25:38.794Z,13.70
2022-10-22T06:28:05.567Z,13.70
2022-10-22T06:30:32.219Z,13.80
2022-10-22T06:32:58.698Z,13.60
2022-10-22T06:35:25.210Z,13.60
2022-10-22T06:37:51.896Z,13.60
2022-10-22T06:40:19.473Z,13.60
2022-10-22T06:42:46.196Z,13.60
2022-10-22T06:45:13.023Z,13.60
2022-10-22T06:47:40.003Z,13.60
2022-10-22T06:50:07.042Z,13.60
2022-10-22T06:52:33.747Z,13.70
2022-10-22T06:55:00.269Z,13.70
2022-10-22T06:57:26.810Z,13.70
2022-10-22T06:59:53.511Z,13.70
2022-10-22T07:02:20.218Z,13.80
2022-10-22T07:04:46.918Z,13.80
2022-10-22T07:07:14.886Z,14.00
2022-10-22T07:09:41.535Z,14.00
2022-10-22T07:12:08.073Z,14.00
2022-10-22T07:14:34.750Z,14.10
2022-10-22T07:17:02.073Z,14.10
2022-10-22T07:19:28.640Z,14.20
2022-10-22T07:21:55.323Z,14.20
2022-10-22T07:24:21.834Z,14.30
2022-10-22T07:26:48.645Z,14.40
2022-10-22T07:29:17.867Z,14.40
2022-10-22T07:31:44.548Z,14.60
2022-10-22T07:34:11.153Z,14.60
2022-10-22T07:36:37.698Z,14.60
2022-10-22T07:39:04.895Z,14.70
2022-10-22T07:41:31.763Z,14.70
2022-10-22T07:43:58.607Z,14.70
2022-10-22T07:46:25.736Z,14.80
2022-10-22T07:48:52.451Z,14.80
2022-10-22T07:51:19.157Z,14.80
2022-10-22T07:53:45.876Z,14.90
2022-10-22T07:56:12.651Z,15.00
2022-10-22T07:58:39.635Z,15.00
2022-10-22T08:01:06.260Z,15.10
2022-10-22T08:03:32.917Z,15.20
2022-10-22T08:06:00.142Z,15.30
2022-10-22T08:08:29.749Z,15.30
2022-10-22T08:10:59.006Z,15.30
2022-10-22T08:13:26.243Z,15.40
2022-10-22T08:15:56.575Z,15.50
2022-10-22T08:18:24.467Z,15.60
2022-10-22T08:20:51.033Z,15.70
2022-10-22T08:23:17.694Z,15.70
2022-10-22T08:25:44.208Z,15.80
2022-10-22T08:28:10.691Z,15.80
2022-10-22T08:30:38.505Z,15.90
2022-10-22T08:33:05.770Z,15.90
2022-10-22T08:35:32.315Z,15.80
2022-10-22T08:37:58.837Z,15.90
2022-10-22T08:40:33.378Z,15.90
2022-10-22T08:43:09.215Z,16.00
2022-10-22T08:45:55.946Z,16.00
2022-10-22T08:48:37.956Z,16.10
2022-10-22T08:51:04.564Z,16.10
2022-10-22T08:53:39.835Z,16.20
2022-10-22T08:56:06.484Z,16.20
2022-10-22T08:58:40.157Z,16.20
2022-10-22T09:01:19.687Z,16.20
2022-10-22T09:03:55.244Z,16.30
2022-10-22T09:06:23.959Z,16.40
2022-10-22T09:08:50.782Z,16.40
2022-10-22T09:11:25.311Z,16.40
2022-10-22T09:13:53.972Z,16.40
2022-10-22T09:16:24.965Z,16.40
2022-10-22T09:19:11.702Z,16.50
2022-10-22T09:21:53.424Z,16.50
2022-10-22T09:24:32.276Z,16.50
2022-10-22T09:27:00.745Z,16.60
2022-10-22T09:29:32.083Z,16.60
2022-10-22T09:31:58.983Z,16.70
2022-10-22T09:34:25.667Z,16.60
2022-10-22T09:37:02.333Z,16.70
2022-10-22T09:39:37.835Z,16.80
2022-10-22T09:42:05.350Z,16.90
2022-10-22T09:44:35.880Z,17.00
2022-10-22T09:47:06.566Z,17.10
2022-10-22T09:49:35.248Z,17.20
2022-10-22T09:52:02.281Z,17.20
2022-10-22T09:54:32.015Z,17.20
2022-10-22T09:57:13.088Z,17.20
2022-10-22T09:59:41.484Z,17.30
2022-10-22T10:02:19.956Z,17.40
2022-10-22T10:04:51.471Z,17.40
2022-10-22T10:07:19.292Z,17.40
2022-10-22T10:09:46.263Z,17.40
2022-10-22T10:12:23.883Z,17.30
2022-10-22T10:15:03.016Z,17.40
2022-10-22T10:17:36.482Z,17.60
2022-10-22T10:20:25.647Z,17.70
2022-10-22T10:22:52.129Z,17.70
2022-10-22T10:25:24.800Z,17.70
2022-10-22T10:28:00.363Z,17.70
2022-10-22T10:30:27.089Z,17.70
2022-10-22T10:33:06.830Z,17.70
2022-10-22T10:35:33.308Z,17.70
2022-10-22T10:38:02.671Z,17.70
2022-10-22T10:40:32.403Z,17.80
2022-10-22T10:43:02.670Z,17.80
2022-10-22T10:45:49.530Z,17.80
2022-10-22T10:48:31.624Z,18.00
2022-10-22T10:51:07.547Z,17.90
2022-10-22T10:53:43.043Z,17.90
2022-10-22T10:56:28.302Z,18.00
2022-10-22T10:59:03.956Z,18.10
2022-10-22T11:01:50.207Z,18.10
2022-10-22T11:04:28.779Z,18.00
2022-10-22T11:07:10.750Z,17.90
2022-10-22T11:09:49.072Z,18.00
2022-10-22T11:12:19.412Z,18.00
2022-10-22T11:14:50.632Z,18.00
2022-10-22T11:17:18.105Z,18.00
2022-10-22T11:20:02.705Z,18.00
2022-10-22T11:22:35.557Z,18.10
2022-10-22T11:25:22.387Z,18.10
2022-10-22T11:27:52.025Z,18.00
2022-10-22T11:30:20.348Z,18.10
2022-10-22T11:32:53.324Z,18.00
2022-10-22T11:35:25.713Z,18.00
2022-10-22T11:37:54.374Z,18.00
2022-10-22T11:40:22.202Z,18.10
2022-10-22T11:42:58.779Z,18.00
2022-10-22T11:45:25.282Z,18.10
2022-10-22T11:47:53.818Z,18.30
2022-10-22T11:50:23.033Z,18.40
2022-10-22T11:52:55.874Z,18.60
2022-10-22T11:55:33.203Z,18.60
2022-10-22T11:58:00.746Z,18.70
2022-10-22T12:00:35.517Z,18.70
2022-10-22T12:03:16.879Z,18.60
2022-10-22T12:05:44.060Z,18.70
2022-10-22T12:08:14.848Z,18.40
2022-10-22T12:11:03.922Z,18.40
2022-10-22T12:13:32.374Z,18.50
2022-10-22T12:16:01.621Z,18.20
2022-10-22T12:18:33.005Z,18.30
2022-10-22T12:20:59.634Z,18.30
2022-10-22T12:23:29.983Z,18.40
2022-10-22T12:25:56.714Z,18.40
2022-10-22T12:28:23.463Z,18.40
2022-10-22T12:30:50.144Z,18.20
2022-10-22T12:33:21.377Z,18.20
2022-10-22T12:35:49.091Z,18.40
2022-10-22T12:38:20.444Z,18.30
2022-10-22T12:40:48.736Z,18.50
2022-10-22T12:43:17.855Z,18.50
2022-10-22T12:45:45.760Z,18.70
2022-10-22T12:48:18.152Z,18.80
2022-10-22T12:50:46.994Z,18.80
2022-10-22T12:53:13.656Z,18.90
2022-10-22T12:55:41.374Z,19.20
2022-10-22T12:58:08.126Z,19.40
2022-10-22T13:00:35.064Z,19.60
2022-10-22T13:03:04.147Z,19.60
2022-10-22T13:05:34.175Z,19.60
2022-10-22T13:08:05.770Z,19.50
2022-10-22T13:10:34.099Z,20.00
2022-10-22T13:13:03.428Z,19.90
2022-10-22T13:15:30.103Z,19.90
2022-10-22T13:18:04.083Z,19.80
2022-10-22T13:20:30.797Z,19.50
2022-10-22T13:23:00.334Z,19.30
2022-10-22T13:25:29.195Z,19.50
2022-10-22T13:27:57.771Z,20.10
2022-10-22T13:30:27.267Z,20.70
2022-10-22T13:32:55.870Z,21.00
2022-10-22T13:35:24.175Z,21.20
2022-10-22T13:37:50.852Z,20.30
2022-10-22T13:40:17.795Z,20.20
2022-10-22T13:42:44.713Z,20.10
2022-10-22T13:45:12.284Z,20.60
2022-10-22T13:47:39.264Z,20.20
2022-10-22T13:50:16.506Z,19.80
2022-10-22T13:52:44.456Z,19.60
2022-10-22T13:55:29.985Z,19.20
2022-10-22T13:58:00.416Z,19.10
2022-10-22T14:00:27.140Z,19.30
2022-10-22T14:02:56.789Z,19.80
2022-10-22T14:05:23.547Z,19.60
2022-10-22T14:07:50.078Z,19.60
2022-10-22T14:10:18.020Z,19.50
2022-10-22T14:12:52.289Z,19.50
2022-10-22T14:15:21.439Z,19.30
2022-10-22T14:17:49.702Z,19.30
2022-10-22T14:20:19.002Z,19.20
2022-10-22T14:22:46.751Z,19.00
2022-10-22T14:25:17.299Z,19.10
2022-10-22T14:27:44.052Z,19.00
2022-10-22T14:30:20.886Z,18.90
2022-10-22T14:32:48.745Z,19.00
2022-10-22T14:35:16.714Z,19.00
2022-10-22T14:37:44.200Z,18.90
2022-10-22T14:40:12.882Z,18.80
2022-10-22T14:42:41.617Z,18.70
2022-10-22T14:45:16.883Z,18.70
2022-10-22T14:47:43.460Z,18.80
2022-10-22T14:50:10.411Z,18.80
2022-10-22T14:52:37.057Z,18.90
2022-10-22T14:55:03.728Z,18.90
2022-10-22T14:57:30.232Z,18.70
2022-10-22T14:59:56.827Z,18.70
2022-10-22T15:02:23.338Z,18.70
2022-10-22T15:04:49.866Z,19.00
2022-10-22T15:07:18.924Z,19.40
2022-10-22T15:09:45.728Z,20.00
2022-10-22T15:12:12.251Z,19.80
2022-10-22T15:14:38.753Z,19.60
2022-10-22T15:17:05.256Z,19.50
2022-10-22T15:19:31.736Z,19.40
2022-10-22T15:21:58.236Z,19.40
2022-10-22T15:24:24.767Z,19.40
2022-10-22T15:26:53.253Z,19.20
2022-10-22T15:29:20.010Z,19.20
2022-10-22T15:31:51.148Z,19.30
2022-10-22T15:34:18.725Z,19.30
2022-10-22T15:36:45.388Z,19.20
2022-10-22T15:39:12.153Z,19.00
2022-10-22T15:41:38.840Z,18.90
2022-10-22T15:44:09.047Z,18.90
2022-10-22T15:46:35.641Z,18.80
2022-10-22T15:49:02.213Z,18.80
2022-10-22T15:51:28.873Z,18.80
2022-10-22T15:53:57.087Z,18.70
2022-10-22T15:56:24.189Z,18.50
2022-10-22T15:58:57.768Z,18.50
2022-10-22T16:01:25.059Z,18.50
2022-10-22T16:04:00.360Z,18.40
2022-10-22T16:06:27.695Z,18.20
2022-10-22T16:08:56.340Z,18.10
2022-10-22T16:11:26.006Z,18.00
2022-10-22T16:13:53.461Z,18.00
2022-10-22T16:16:20.147Z,17.90
2022-10-22T16:18:46.668Z,17.80
2022-10-22T16:21:14.574Z,17.70
2022-10-22T16:23:42.197Z,17.60
2022-10-22T16:26:08.881Z,17.50
2022-10-22T16:28:35.423Z,17.40
2022-10-22T16:31:04.864Z,17.30
2022-10-22T16:33:41.304Z,17.30
2022-10-22T16:36:14.821Z,17.20
2022-10-22T16:38:41.302Z,17.00
2022-10-22T16:41:08.845Z,16.90
2022-10-22T16:43:35.771Z,16.80
2022-10-22T16:46:02.522Z,16.70
2022-10-22T16:48:29.219Z,16.60
2022-10-22T16:50:55.703Z,16.50
2022-10-22T16:53:25.053Z,16.40
2022-10-22T16:55:51.564Z,16.40
2022-10-22T16:58:18.234Z,16.30
2022-10-22T17:00:44.788Z,16.20
2022-10-22T17:03:11.626Z,16.10
2022-10-22T17:05:38.299Z,16.00
2022-10-22T17:08:05.143Z,15.90
2022-10-22T17:10:31.688Z,15.80
2022-10-22T17:12:58.404Z,15.70
2022-10-22T17:15:25.083Z,15.70
2022-10-22T17:17:53.680Z,15.60
2022-10-22T17:20:20.526Z,15.50
2022-10-22T17:22:47.417Z,15.50
2022-10-22T17:25:15.584Z,15.40
2022-10-22T17:27:43.355Z,15.30
2022-10-22T17:30:12.370Z,15.30
2022-10-22T17:32:39.168Z,15.20
2022-10-22T17:35:07.017Z,15.20
2022-10-22T17:37:33.770Z,15.10
2022-10-22T17:40:01.306Z,15.00
2022-10-22T17:42:28.091Z,15.00
2022-10-22T17:44:54.631Z,14.90
2022-10-22T17:47:21.530Z,14.90
2022-10-22T17:49:48.024Z,14.90
2022-10-22T17:52:14.906Z,14.80
2022-10-22T17:54:41.881Z,14.80
2022-10-22T17:57:08.700Z,14.80
2022-10-22T17:59:35.328Z,14.70
2022-10-22T18:02:02.280Z,14.70
2022-10-22T18:04:29.935Z,14.60
2022-10-22T18:06:56.654Z,14.60
2022-10-22T18:09:23.136Z,14.60
2022-10-22T18:11:50.635Z,14.50
2022-10-22T18:14:17.732Z,14.50
2022-10-22T18:16:44.219Z,14.50
2022-10-22T18:19:11.190Z,14.40
2022-10-22T18:21:37.826Z,14.50
2022-10-22T18:24:04.450Z,14.40
2022-10-22T18:26:30.974Z,14.40
2022-10-22T18:28:57.682Z,14.40
2022-10-22T18:31:25.056Z,14.30
2022-10-22T18:33:52.007Z,14.30
2022-10-22T18:36:19.710Z,14.30
2022-10-22T18:38:50.337Z,14.20
2022-10-22T18:41:16.869Z,14.20
2022-10-22T18:43:43.346Z,14.20
2022-10-22T18:46:09.918Z,14.20
2022-10-22T18:48:36.652Z,14.20
2022-10-22T18:51:07.627Z,14.10
2022-10-22T18:53:35.035Z,14.10
2022-10-22T18:56:03.884Z,14.10
2022-10-22T18:58:30.423Z,14.10
2022-10-22T19:00:57.007Z,14.00
2022-10-22T19:03:23.579Z,14.10
2022-10-22T19:05:51.231Z,14.00
2022-10-22T19:08:18.966Z,14.00
2022-10-22T19:10:46.504Z,14.00
2022-10-22T19:13:14.058Z,14.00
2022-10-22T19:15:40.643Z,14.00
2022-10-22T19:18:07.277Z,13.90
2022-10-22T19:20:34.703Z,13.90
2022-10-22T19:23:01.374Z,13.90
2022-10-22T19:25:28.091Z,13.90
2022-10-22T19:27:54.844Z,13.90
2022-10-22T19:30:21.380Z,13.80
2022-10-22T19:32:48.814Z,13.80
2022-10-22T19:35:15.536Z,13.80
2022-10-22T19:37:46.055Z,13.80
2022-10-22T19:40:14.689Z,13.80
2022-10-22T19:42:41.709Z,13.80
2022-10-22T19:45:09.592Z,13.70
2022-10-22T19:47:36.415Z,13.70
2022-10-22T19:50:03.009Z,13.70
2022-10-22T19:52:29.549Z,13.60
2022-10-22T19:54:56.147Z,13.60
2022-10-22T19:57:22.821Z,13.60
2022-10-22T19:59:49.330Z,13.60
2022-10-22T20:02:17.018Z,13.60
2022-10-22T20:04:47.929Z,13.60
2022-10-22T20:07:16.752Z,13.60
2022-10-22T20:09:43.399Z,13.50
2022-10-22T20:12:12.645Z,13.50
2022-10-22T20:14:39.748Z,13.50
2022-10-22T20:17:06.262Z,13.50
2022-10-22T20:19:35.797Z,13.50
2022-10-22T20:22:02.694Z,13.50
2022-10-22T20:24:29.449Z,13.50
2022-10-22T20:26:56.194Z,13.50
2022-10-22T20:29:22.731Z,13.50
2022-10-22T20:31:49.407Z,13.40
2022-10-22T20:34:17.399Z,13.40
2022-10-22T20:36:44.119Z,13.40
2022-10-22T20:39:12.338Z,13.40
2022-10-22T20:41:40.559Z,13.40
2022-10-22T20:44:09.837Z,13.30
2022-10-22T20:46:36.570Z,13.30
2022-10-22T20:49:04.936Z,13.30
2022-10-22T20:51:31.845Z,13.30
2022-10-22T20:53:58.333Z,13.20
2022-10-22T20:56:25.331Z,13.20
2022-10-22T20:58:57.401Z,13.20
2022-10-22T21:01:24.437Z,13.20
2022-10-22T21:03:53.596Z,13.20
2022-10-22T21:06:23.492Z,13.20
2022-10-22T21:08:50.375Z,13.20
2022-10-22T21:11:17.222Z,13.20
2022-10-22T21:13:47.055Z,13.20
2022-10-22T21:16:14.474Z,13.20
2022-10-22T21:18:41.167Z,13.20
2022-10-22T21:21:08.083Z,13.20
2022-10-22T21:23:35.132Z,13.20
2022-10-22T21:26:01.846Z,13.20
2022-10-22T21:30:55.466Z,13.20
2022-10-22T21:33:22.001Z,13.10
2022-10-22T21:35:52.828Z,13.20
2022-10-22T21:38:20.327Z,13.20
2022-10-22T21:40:47.293Z,13.20
2022-10-22T21:43:17.931Z,13.20
2022-10-22T21:45:45.162Z,13.20
2022-10-22T21:48:12.754Z,13.20
2022-10-22T21:50:42.793Z,13.20
2022-10-22T21:53:10.226Z,13.20
2022-10-22T21:55:37.544Z,13.10
2022-10-22T21:58:04.063Z,13.20
2022-10-22T22:00:30.752Z,13.20
2022-10-22T22:02:57.315Z,13.20
2022-10-22T22:05:24.012Z,13.20
2022-10-22T22:07:50.785Z,13.20
2022-10-22T22:10:17.550Z,13.20
2022-10-22T22:12:44.488Z,13.20
2022-10-22T22:15:11.298Z,13.10
2022-10-22T22:17:39.269Z,13.20
2022-10-22T22:20:06.186Z,13.10
2022-10-22T22:22:33.287Z,13.10
2022-10-22T22:25:02.235Z,13.10
2022-10-22T22:27:29.010Z,13.10
2022-10-22T22:29:55.694Z,13.10
2022-10-22T22:32:22.304Z,13.10
2022-10-22T22:34:48.928Z,13.10
2022-10-22T22:37:15.621Z,13.10
2022-10-22T22:39:42.134Z,13.10
2022-10-22T22:42:08.651Z,13.10
2022-10-22T22:44:35.176Z,13.20
2022-10-22T22:47:01.885Z,13.10
2022-10-22T22:49:28.484Z,13.20
2022-10-22T22:51:55.014Z,13.10
2022-10-22T22:54:21.524Z,13.20
2022-10-22T22:56:49.744Z,13.10
2022-10-22T22:59:16.247Z,13.10
2022-10-22T23:01:42.822Z,13.20
2022-10-22T23:04:13.728Z,13.20
2022-10-22T23:06:40.364Z,13.20
2022-10-22T23:09:09.079Z,13.20
2022-10-22T23:11:36.109Z,13.20
2022-10-22T23:14:03.846Z,13.20
2022-10-22T23:16:33.377Z,13.20
2022-10-22T23:19:00.174Z,13.20
2022-10-22T23:21:31.807Z,13.10
2022-10-22T23:24:02.898Z,13.20
2022-10-22T23:26:31.094Z,13.20
2022-10-22T23:29:08.175Z,13.10
2022-10-22T23:31:34.871Z,13.10
2022-10-22T23:34:01.362Z,13.10
2022-10-22T23:36:28.191Z,13.00
2022-10-22T23:38:55.627Z,13.00
2022-10-22T23:41:22.372Z,13.10
2022-10-22T23:43:49.986Z,13.10
2022-10-22T23:46:16.691Z,13.00
2022-10-22T23:48:43.622Z,13.00
2022-10-22T23:51:11.578Z,13.00
2022-10-22T23:53:38.475Z,12.90
2022-10-22T23:56:06.080Z,12.90
2022-10-22T23:58:33.268Z,12.90
